Matsya — F$8659 — position and weather

sailwx.info

Track history (hours):
 
Tides and Currents Weather Stations Pressure Air Temp Water Temp Dewpoint Dewpoint Depression Visibility Wind Speed Wind Dir Waves Ship Positions

Matsya

Last reported at 2018-Apr-04 05:08 UTC. Time now 2018-Apr-19 17:08 UTC.
Position N 16°30' W 062°07'.
Warning: this ship's position is 15 days out of date.

Length 67 m; draft 2.9 m.

Type: Ship. MMSI: 244391217.

Date/timePositionNaut miles runAvg speedWind from/ knotsBaromVisibWave heightAir tempDewpointWater temp
2018-Apr-04 05:08N 16°30' W 062°07'1 5.8
2018-Apr-04 04:56N 16°31' W 062°08'3 5.6
2018-Apr-04 04:21N 16°34' W 062°10'2 6.1
2018-Apr-04 04:00N 16°36' W 062°12'10 6.4
2018-Apr-04 02:22N 16°44' W 062°18'67 6.6
2018-Apr-03 16:14N 17°39' W 062°58'4 7.2
2018-Apr-03 15:44N 17°43' W 062°59'2 6.5
2018-Apr-03 15:25N 17°45' W 062°59'3 5.8
2018-Apr-03 14:55N 17°48' W 063°00'2 5.7
2018-Apr-03 14:30N 17°50' W 063°01'4 6.9
2018-Apr-03 13:54N 17°54' W 063°02'3 7.0
2018-Apr-03 13:30N 17°56' W 063°04'4 7.2
2018-Apr-03 13:00N 17°60' W 063°05'3 5.2
2018-Apr-03 12:29N 18°02' W 063°05'0 0.5
2018-Apr-03 11:40N 18°03' W 063°06'0 1.4
2018-Apr-03 11:21N 18°03' W 063°06'0 0.2
2018-Apr-03 10:58N 18°03' W 063°06'0 0.0
2018-Apr-03 10:28N 18°03' W 063°06'0 0.0
2018-Apr-03 09:58N 18°03' W 063°06'0 0.0
2018-Apr-03 09:28N 18°03' W 063°06'0 0.0
2018-Apr-03 08:58N 18°03' W 063°06'0 0.0
2018-Apr-03 08:19N 18°03' W 063°06'0 0.0
2018-Apr-03 07:58N 18°03' W 063°06'0 0.0
2018-Apr-03 07:19N 18°03' W 063°06'0 0.0
2018-Apr-03 06:49N 18°03' W 063°06'0 0.0
2018-Apr-03 06:22N 18°03' W 063°06'0 0.0
2018-Apr-03 05:49N 18°03' W 063°06'0 0.0
2018-Apr-03 05:22N 18°03' W 063°06'0 0.0
2018-Apr-03 04:52N 18°03' W 063°06'0 0.0
2018-Apr-03 04:07N 18°03' W 063°06'0 0.0
2018-Apr-03 03:52N 18°03' W 063°06'0 0.0
2018-Apr-03 03:22N 18°03' W 063°06'0 0.0
2018-Apr-03 02:55N 18°03' W 063°06'0 0.0
2018-Apr-03 02:22N 18°03' W 063°06'0 0.0
2018-Apr-03 01:55N 18°03' W 063°06'0 0.0
2018-Apr-03 01:25N 18°03' W 063°06'0 0.0
2018-Apr-03 00:55N 18°03' W 063°06'0 0.0
2018-Apr-03 00:25N 18°03' W 063°06'0 0.0
2018-Apr-02 23:55N 18°03' W 063°06'0 0.0
2018-Apr-02 23:25N 18°03' W 063°06'0 0.0
2018-Apr-02 22:55N 18°03' W 063°06'0 0.0
2018-Apr-02 22:28N 18°03' W 063°06'0 0.0
2018-Apr-02 21:58N 18°03' W 063°06'0 0.0
2018-Apr-02 21:25N 18°03' W 063°06'0 0.0
2018-Apr-02 20:46N 18°03' W 063°06'0 0.0
2018-Apr-02 20:16N 18°03' W 063°06'0 0.0
2018-Apr-02 19:58N 18°03' W 063°06'0 0.0
2018-Apr-02 19:19N 18°03' W 063°06'0 0.0
2018-Apr-02 18:58N 18°03' W 063°06'0 0.0
2018-Apr-02 18:19N 18°03' W 063°06'0 0.0
2018-Apr-02 17:49N 18°03' W 063°06'0 0.0
2018-Apr-02 17:19N 18°03' W 063°06'0 0.0
2018-Apr-02 16:49N 18°03' W 063°06'0 0.0
2018-Apr-02 16:19N 18°03' W 063°06'0 0.0
2018-Apr-02 15:52N 18°03' W 063°06'0 0.0
2018-Apr-02 15:22N 18°03' W 063°06'0 0.0
2018-Apr-02 14:49N 18°03' W 063°06'0 0.0
2018-Apr-02 14:22N 18°03' W 063°06'0 0.0
2018-Apr-02 13:55N 18°03' W 063°06'0 0.0
2018-Apr-02 13:25N 18°03' W 063°06'0 0.0
2018-Apr-02 12:55N 18°03' W 063°06'0 0.0
2018-Apr-02 12:25N 18°03' W 063°06'0 0.0
2018-Apr-02 11:55N 18°03' W 063°06'0 0.0
2018-Apr-02 11:25N 18°03' W 063°06'0 0.0
2018-Apr-02 10:58N 18°03' W 063°06'0 0.0
2018-Apr-02 10:28N 18°03' W 063°06'0 0.0
2018-Apr-02 09:58N 18°03' W 063°06'0 0.0
2018-Apr-02 09:28N 18°03' W 063°06'0 0.0
2018-Apr-02 08:58N 18°03' W 063°06'0 0.0
2018-Apr-02 08:28N 18°03' W 063°06'0 0.0
2018-Apr-02 07:58N 18°03' W 063°06'0 0.0
2018-Apr-02 07:28N 18°03' W 063°06'0 0.0
2018-Apr-02 06:58N 18°03' W 063°06'0 0.0
2018-Apr-02 06:16N 18°03' W 063°06'0 0.0
2018-Apr-02 05:58N 18°03' W 063°06'0 0.0
2018-Apr-02 05:28N 18°03' W 063°06'0 0.0
2018-Apr-02 04:58N 18°03' W 063°06'0 0.0
2018-Apr-02 04:19N 18°03' W 063°06'0 0.0
2018-Apr-02 03:46N 18°03' W 063°06'0 0.0
2018-Apr-02 03:19N 18°03' W 063°06'0 0.0
2018-Apr-02 02:52N 18°03' W 063°06'0 0.0
2018-Apr-02 02:22N 18°03' W 063°06'0 0.0
2018-Apr-02 01:52N 18°03' W 063°06'0 0.0
2018-Apr-02 01:22N 18°03' W 063°06'0 0.0
2018-Apr-02 00:52N 18°03' W 063°06'0 0.0
2018-Apr-02 00:22N 18°03' W 063°06'0 0.0
2018-Apr-01 23:55N 18°03' W 063°06'0 0.0
2018-Apr-01 23:25N 18°03' W 063°06'0 0.0
2018-Apr-01 22:55N 18°03' W 063°06'0 0.0
2018-Apr-01 22:22N 18°03' W 063°06'0 0.0
2018-Apr-01 21:55N 18°03' W 063°06'0 0.0
2018-Apr-01 21:28N 18°03' W 063°06'0 0.0
2018-Apr-01 20:58N 18°03' W 063°06'0 0.1
2018-Apr-01 20:30N 18°03' W 063°06'0 0.0
2018-Apr-01 19:59N 18°03' W 063°06'0 0.0
2018-Apr-01 19:30N 18°03' W 063°06'0 0.0
2018-Apr-01 19:00N 18°03' W 063°06'0 0.0
2018-Apr-01 18:30N 18°03' W 063°06'0 0.0
2018-Apr-01 17:48N 18°03' W 063°06'0 0.0
2018-Apr-01 17:17N 18°03' W 063°06'0 0.0
2018-Apr-01 16:50N 18°03' W 063°06'0 0.0
2018-Apr-01 16:24N 18°03' W 063°06'0 0.0
2018-Apr-01 15:54N 18°03' W 063°06'0 0.0
2018-Apr-01 15:23N 18°03' W 063°06'0 0.0
2018-Apr-01 14:53N 18°03' W 063°06'0 0.0
2018-Apr-01 14:23N 18°03' W 063°06'0 0.0
2018-Apr-01 13:53N 18°03' W 063°06'0 0.0
2018-Apr-01 13:27N 18°03' W 063°06'0 0.0
2018-Apr-01 12:56N 18°03' W 063°06'0 0.0
2018-Apr-01 12:26N 18°03' W 063°06'0 0.0
2018-Apr-01 11:51N 18°03' W 063°06'0 0.0
2018-Apr-01 11:21N 18°03' W 063°06'0 0.0
2018-Apr-01 10:51N 18°03' W 063°06'0 0.0
2018-Apr-01 10:24N 18°03' W 063°06'0 0.0
2018-Apr-01 09:54N 18°03' W 063°06'0 0.0
2018-Apr-01 09:24N 18°03' W 063°06'0 0.0
2018-Apr-01 08:54N 18°03' W 063°06'0 0.0
2018-Apr-01 08:24N 18°03' W 063°06'0 0.0
2018-Apr-01 07:57N 18°03' W 063°06'0 0.0
2018-Apr-01 07:27N 18°03' W 063°06'0 0.0
2018-Apr-01 06:54N 18°03' W 063°06'0 0.0
2018-Apr-01 06:27N 18°03' W 063°06'0 0.0
2018-Apr-01 05:54N 18°03' W 063°06'0 0.0
2018-Apr-01 05:30N 18°03' W 063°06'0 0.0
2018-Apr-01 05:00N 18°03' W 063°06'0 0.0
2018-Apr-01 04:30N 18°03' W 063°06'0 0.0
2018-Apr-01 04:00N 18°03' W 063°06'0 0.0
2018-Apr-01 03:27N 18°03' W 063°06'0 0.0
2018-Apr-01 03:00N 18°03' W 063°06'0 0.0
2018-Apr-01 02:30N 18°03' W 063°06'0 0.0
2018-Apr-01 01:57N 18°03' W 063°06'0 0.0
2018-Apr-01 01:30N 18°03' W 063°06'0 0.0
2018-Apr-01 00:45N 18°03' W 063°06'0 0.0
2018-Apr-01 00:30N 18°03' W 063°06'0 0.0
2018-Apr-01 00:00N 18°03' W 063°06'0 0.0
2018-Mar-31 23:18N 18°03' W 063°06'0 0.0
2018-Mar-31 23:00N 18°03' W 063°06'0 0.0
2018-Mar-31 22:21N 18°03' W 063°06'0 0.0
2018-Mar-31 21:54N 18°03' W 063°06'0 0.0
2018-Mar-31 21:24N 18°03' W 063°06'0 0.0
2018-Mar-31 20:51N 18°03' W 063°06'0 0.0
2018-Mar-31 20:24N 18°03' W 063°06'0 0.0
2018-Mar-31 19:54N 18°03' W 063°06'0 0.0
2018-Mar-31 19:24N 18°03' W 063°06'0 0.0
2018-Mar-31 18:51N 18°03' W 063°06'0 0.0
2018-Mar-31 18:27N 18°03' W 063°06'0 0.0
2018-Mar-31 17:57N 18°03' W 063°06'0 0.0
2018-Mar-31 17:27N 18°03' W 063°06'0 0.0
2018-Mar-31 16:57N 18°03' W 063°06'0 0.0
2018-Mar-31 16:27N 18°03' W 063°06'0 0.0
2018-Mar-31 16:00N 18°03' W 063°06'0 0.0
2018-Mar-31 15:30N 18°03' W 063°06'0 0.0
2018-Mar-31 15:00N 18°03' W 063°06'0 0.0
2018-Mar-31 14:30N 18°03' W 063°06'0 0.0
2018-Mar-31 14:00N 18°03' W 063°06'0 0.0
2018-Mar-31 13:30N 18°03' W 063°06'0 0.0
2018-Mar-31 13:00N 18°03' W 063°06'0 0.0
2018-Mar-31 12:30N 18°03' W 063°06'0 0.0
2018-Mar-31 12:00N 18°03' W 063°06'0 0.0
2018-Mar-31 11:30N 18°03' W 063°06'0 0.0
2018-Mar-31 11:00N 18°03' W 063°06'0 0.0
2018-Mar-31 10:30N 18°03' W 063°06'0 0.0
2018-Mar-31 10:00N 18°03' W 063°06'0 0.0
2018-Mar-31 09:21N 18°03' W 063°06'0 0.0
2018-Mar-31 08:51N 18°03' W 063°06'0 0.0
2018-Mar-31 08:18N 18°03' W 063°06'0 0.0
2018-Mar-31 07:54N 18°03' W 063°06'0 0.0
2018-Mar-31 07:24N 18°03' W 063°06'0 0.0
2018-Mar-31 06:54N 18°03' W 063°06'0 0.0
2018-Mar-31 06:24N 18°03' W 063°06'0 0.0
2018-Mar-31 05:54N 18°03' W 063°06'0 0.0
2018-Mar-31 05:27N 18°03' W 063°06'0 0.0
2018-Mar-31 04:57N 18°03' W 063°06'0 0.0
2018-Mar-31 04:27N 18°03' W 063°06'0 0.0
2018-Mar-31 03:52N 18°03' W 063°06'0 0.0
2018-Mar-31 03:25N 18°03' W 063°06'0 0.0
2018-Mar-31 02:55N 18°03' W 063°06'0 0.0
2018-Mar-31 02:25N 18°03' W 063°06'0 0.0
2018-Mar-31 01:55N 18°03' W 063°06'0 0.0
2018-Mar-31 01:22N 18°03' W 063°06'0 0.0
2018-Mar-31 00:58N 18°03' W 063°06'0 0.0
2018-Mar-31 00:28N 18°03' W 063°06'0 0.0
2018-Mar-30 23:58N 18°03' W 063°06'0 0.0
2018-Mar-30 23:13N 18°03' W 063°06'0 0.0
2018-Mar-30 22:58N 18°03' W 063°06'0 0.0
2018-Mar-30 22:28N 18°03' W 063°06'0 0.0
2018-Mar-30 21:58N 18°03' W 063°06'0 0.0
2018-Mar-30 21:28N 18°03' W 063°06'0 0.0
2018-Mar-30 20:58N 18°03' W 063°06'0 0.0
2018-Mar-30 20:28N 18°03' W 063°06'0 0.0
2018-Mar-30 19:58N 18°03' W 063°06'0 0.0
2018-Mar-30 19:28N 18°03' W 063°06'0 0.0
2018-Mar-30 18:58N 18°03' W 063°06'0 0.0
2018-Mar-30 18:30N 18°03' W 063°06'0 0.0
2018-Mar-30 18:00N 18°03' W 063°06'0 0.0
2018-Mar-30 16:48N 18°03' W 063°06'0 0.0
2018-Mar-30 16:24N 18°03' W 063°06'0 0.0
2018-Mar-30 15:54N 18°03' W 063°06'0 0.0
2018-Mar-30 15:24N 18°03' W 063°06'0 0.0
2018-Mar-30 14:54N 18°03' W 063°06'0 0.0
2018-Mar-30 14:24N 18°03' W 063°06'0 0.0
2018-Mar-30 13:54N 18°03' W 063°06'0 0.0
2018-Mar-30 13:27N 18°03' W 063°06'0 0.0
2018-Mar-30 12:57N 18°03' W 063°06'0 0.0
2018-Mar-30 12:24N 18°03' W 063°06'0 0.0
2018-Mar-30 11:57N 18°03' W 063°06'0 0.0
2018-Mar-30 11:27N 18°03' W 063°06'0 0.0
2018-Mar-30 11:00N 18°03' W 063°06'0 0.0
2018-Mar-30 10:30N 18°03' W 063°06'0 0.0
2018-Mar-30 10:00N 18°03' W 063°06'0 0.0
2018-Mar-30 09:30N 18°03' W 063°06'0 0.0
2018-Mar-30 09:00N 18°03' W 063°06'0 0.0
2018-Mar-30 08:30N 18°03' W 063°06'0 0.0
2018-Mar-30 08:00N 18°03' W 063°06'0 0.0
2018-Mar-30 07:30N 18°03' W 063°06'0 0.0
2018-Mar-30 07:00N 18°03' W 063°06'0 0.0
2018-Mar-30 06:30N 18°03' W 063°06'0 0.0
2018-Mar-30 06:00N 18°03' W 063°06'0 0.0
2018-Mar-30 05:30N 18°03' W 063°06'0 0.0
2018-Mar-30 05:00N 18°03' W 063°06'0 0.0
2018-Mar-30 04:15N 18°03' W 063°06'0 0.0
2018-Mar-30 03:51N 18°03' W 063°06'0 0.0
2018-Mar-30 03:21N 18°03' W 063°06'0 0.0
2018-Mar-30 02:54N 18°03' W 063°06'0 0.0
2018-Mar-30 02:24N 18°03' W 063°06'0 0.0
2018-Mar-30 01:54N 18°03' W 063°06'0 0.0
2018-Mar-30 01:24N 18°03' W 063°06'0 0.0
2018-Mar-30 00:54N 18°03' W 063°06'0 0.0
2018-Mar-30 00:24N 18°03' W 063°06'0 0.0
2018-Mar-29 23:57N 18°03' W 063°06'0 0.0
2018-Mar-29 23:27N 18°03' W 063°06'0 0.0
2018-Mar-29 22:57N 18°03' W 063°06'0 0.0
2018-Mar-29 22:27N 18°03' W 063°06'1 1.2
2018-Mar-29 21:57N 18°03' W 063°06'1 1.3
2018-Mar-29 21:30N 18°03' W 063°06'0 0.0
2018-Mar-29 21:00N 18°03' W 063°06'0 0.0
2018-Mar-29 20:30N 18°03' W 063°06'0 0.0
2018-Mar-29 20:00N 18°03' W 063°06'0 0.0
2018-Mar-29 19:27N 18°03' W 063°06'0 0.0
2018-Mar-29 18:57N 18°03' W 063°06'0 0.0
2018-Mar-29 18:30N 18°03' W 063°06'0 0.0
2018-Mar-29 18:00N 18°03' W 063°06'0 0.0
2018-Mar-29 17:27N 18°03' W 063°06'0 0.0
2018-Mar-29 17:00N 18°03' W 063°06'0 0.0
2018-Mar-29 16:18N 18°03' W 063°06'0 0.0
2018-Mar-29 15:48N 18°03' W 063°06'0 0.0
2018-Mar-29 15:30N 18°03' W 063°06'0 0.0
2018-Mar-29 14:51N 18°03' W 063°06'0 0.0
2018-Mar-29 14:21N 18°03' W 063°06'0 0.0
2018-Mar-29 13:51N 18°03' W 063°06'0 0.0
2018-Mar-29 13:21N 18°03' W 063°06'0 0.0
2018-Mar-29 12:54N 18°03' W 063°06'0 0.0
2018-Mar-29 12:24N 18°03' W 063°06'0 0.0
2018-Mar-29 11:54N 18°03' W 063°06'0 0.0
2018-Mar-29 11:24N 18°03' W 063°06'0 0.0
2018-Mar-29 10:54N 18°03' W 063°06'0 0.0
2018-Mar-29 10:24N 18°03' W 063°06'0 0.0
2018-Mar-29 09:57N 18°03' W 063°06'0 0.0
2018-Mar-29 09:27N 18°03' W 063°06'0 0.0
2018-Mar-29 08:54N 18°03' W 063°06'0 0.0
2018-Mar-29 08:27N 18°03' W 063°06'0 0.0
2018-Mar-29 08:00N 18°03' W 063°06'0 0.0
2018-Mar-29 07:30N 18°03' W 063°06'0 0.0
2018-Mar-29 07:00N 18°03' W 063°06'0 0.0
2018-Mar-29 06:30N 18°03' W 063°06'0 0.0
2018-Mar-29 06:00N 18°03' W 063°06'0 0.0
2018-Mar-29 05:30N 18°03' W 063°06'0 0.0
2018-Mar-29 04:48N 18°03' W 063°06'0 0.0
2018-Mar-29 04:30N 18°03' W 063°06'0 0.0
2018-Mar-29 04:00N 18°03' W 063°06'0 0.0
2018-Mar-29 03:30N 18°03' W 063°06'0 0.0
2018-Mar-29 03:00N 18°03' W 063°06'0 0.0
2018-Mar-29 02:30N 18°03' W 063°06'0 0.0
2018-Mar-29 02:00N 18°03' W 063°06'0 0.0
2018-Mar-29 01:30N 18°03' W 063°06'0 0.0
2018-Mar-29 01:00N 18°03' W 063°06'0 0.0
2018-Mar-29 00:21N 18°03' W 063°06'0 0.0
2018-Mar-28 23:51N 18°03' W 063°06'0 0.0
2018-Mar-28 23:24N 18°03' W 063°06'0 0.0
2018-Mar-28 22:54N 18°03' W 063°06'0 0.0
2018-Mar-28 22:21N 18°03' W 063°06'0 0.0
2018-Mar-28 21:54N 18°03' W 063°06'0 0.0
2018-Mar-28 21:24N 18°03' W 063°06'0 0.0
2018-Mar-28 20:57N 18°03' W 063°06'0 0.0
2018-Mar-28 20:27N 18°03' W 063°06'0 0.0
2018-Mar-28 19:57N 18°03' W 063°06'1 1.4
2018-Mar-28 19:30N 18°03' W 063°06'0 0.2
2018-Mar-28 18:48N 18°02' W 063°06'0 0.0
2018-Mar-28 18:06N 18°02' W 063°06'0 0.0
2018-Mar-28 17:54N 18°02' W 063°06'0 0.0
2018-Mar-28 17:24N 18°02' W 063°06'0 0.0
2018-Mar-28 16:51N 18°02' W 063°06'0 0.0
2018-Mar-28 16:21N 18°02' W 063°06'0 0.0
2018-Mar-28 15:51N 18°02' W 063°06'0 1.3
2018-Mar-28 15:28N 18°02' W 063°06'0 0.2
2018-Mar-28 14:53N 18°02' W 063°06'0 0.0
2018-Mar-28 14:26N 18°02' W 063°06'0 0.8
2018-Mar-28 13:59N 18°02' W 063°06'3 7.0
2018-Mar-28 13:30N 17°60' W 063°03'5 7.1
2018-Mar-28 12:48N 17°57' W 062°59'  
Track history (hours):
 
Tides and Currents Weather Stations Pressure Air Temp Water Temp Dewpoint Dewpoint Depression Visibility Wind Speed Wind Dir Waves Ship Positions

Matsya

Last reported at 2018-Apr-04 05:08 UTC. Time now 2018-Apr-19 17:08 UTC.
Position N 16°30' W 062°07'.
Warning: this ship's position is 15 days out of date.

Length 67 m; draft 2.9 m.

Type: Ship. MMSI: 244391217.

Date/timePositionNaut miles runAvg speedWind from/ knotsBaromVisibWave heightAir tempDewpointWater temp
2018-Apr-04 05:08N 16°30' W 062°07'1 5.8
2018-Apr-04 04:56N 16°31' W 062°08'3 5.6
2018-Apr-04 04:21N 16°34' W 062°10'2 6.1
2018-Apr-04 04:00N 16°36' W 062°12'10 6.4
2018-Apr-04 02:22N 16°44' W 062°18'67 6.6
2018-Apr-03 16:14N 17°39' W 062°58'4 7.2
2018-Apr-03 15:44N 17°43' W 062°59'2 6.5
2018-Apr-03 15:25N 17°45' W 062°59'3 5.8
2018-Apr-03 14:55N 17°48' W 063°00'2 5.7
2018-Apr-03 14:30N 17°50' W 063°01'4 6.9
2018-Apr-03 13:54N 17°54' W 063°02'3 7.0
2018-Apr-03 13:30N 17°56' W 063°04'4 7.2
2018-Apr-03 13:00N 17°60' W 063°05'3 5.2
2018-Apr-03 12:29N 18°02' W 063°05'0 0.5
2018-Apr-03 11:40N 18°03' W 063°06'0 1.4
2018-Apr-03 11:21N 18°03' W 063°06'0 0.2
2018-Apr-03 10:58N 18°03' W 063°06'0 0.0
2018-Apr-03 10:28N 18°03' W 063°06'0 0.0
2018-Apr-03 09:58N 18°03' W 063°06'0 0.0
2018-Apr-03 09:28N 18°03' W 063°06'0 0.0
2018-Apr-03 08:58N 18°03' W 063°06'0 0.0
2018-Apr-03 08:19N 18°03' W 063°06'0 0.0
2018-Apr-03 07:58N 18°03' W 063°06'0 0.0
2018-Apr-03 07:19N 18°03' W 063°06'0 0.0
2018-Apr-03 06:49N 18°03' W 063°06'0 0.0
2018-Apr-03 06:22N 18°03' W 063°06'0 0.0
2018-Apr-03 05:49N 18°03' W 063°06'0 0.0
2018-Apr-03 05:22N 18°03' W 063°06'0 0.0
2018-Apr-03 04:52N 18°03' W 063°06'0 0.0
2018-Apr-03 04:07N 18°03' W 063°06'0 0.0
2018-Apr-03 03:52N 18°03' W 063°06'0 0.0
2018-Apr-03 03:22N 18°03' W 063°06'0 0.0
2018-Apr-03 02:55N 18°03' W 063°06'0 0.0
2018-Apr-03 02:22N 18°03' W 063°06'0 0.0
2018-Apr-03 01:55N 18°03' W 063°06'0 0.0
2018-Apr-03 01:25N 18°03' W 063°06'0 0.0
2018-Apr-03 00:55N 18°03' W 063°06'0 0.0
2018-Apr-03 00:25N 18°03' W 063°06'0 0.0
2018-Apr-02 23:55N 18°03' W 063°06'0 0.0
2018-Apr-02 23:25N 18°03' W 063°06'0 0.0
2018-Apr-02 22:55N 18°03' W 063°06'0 0.0
2018-Apr-02 22:28N 18°03' W 063°06'0 0.0
2018-Apr-02 21:58N 18°03' W 063°06'0 0.0
2018-Apr-02 21:25N 18°03' W 063°06'0 0.0
2018-Apr-02 20:46N 18°03' W 063°06'0 0.0
2018-Apr-02 20:16N 18°03' W 063°06'0 0.0
2018-Apr-02 19:58N 18°03' W 063°06'0 0.0
2018-Apr-02 19:19N 18°03' W 063°06'0 0.0
2018-Apr-02 18:58N 18°03' W 063°06'0 0.0
2018-Apr-02 18:19N 18°03' W 063°06'0 0.0
2018-Apr-02 17:49N 18°03' W 063°06'0 0.0
2018-Apr-02 17:19N 18°03' W 063°06'0 0.0
2018-Apr-02 16:49N 18°03' W 063°06'0 0.0
2018-Apr-02 16:19N 18°03' W 063°06'0 0.0
2018-Apr-02 15:52N 18°03' W 063°06'0 0.0
2018-Apr-02 15:22N 18°03' W 063°06'0 0.0
2018-Apr-02 14:49N 18°03' W 063°06'0 0.0
2018-Apr-02 14:22N 18°03' W 063°06'0 0.0
2018-Apr-02 13:55N 18°03' W 063°06'0 0.0
2018-Apr-02 13:25N 18°03' W 063°06'0 0.0
2018-Apr-02 12:55N 18°03' W 063°06'0 0.0
2018-Apr-02 12:25N 18°03' W 063°06'0 0.0
2018-Apr-02 11:55N 18°03' W 063°06'0 0.0
2018-Apr-02 11:25N 18°03' W 063°06'0 0.0
2018-Apr-02 10:58N 18°03' W 063°06'0 0.0
2018-Apr-02 10:28N 18°03' W 063°06'0 0.0
2018-Apr-02 09:58N 18°03' W 063°06'0 0.0
2018-Apr-02 09:28N 18°03' W 063°06'0 0.0
2018-Apr-02 08:58N 18°03' W 063°06'0 0.0
2018-Apr-02 08:28N 18°03' W 063°06'0 0.0
2018-Apr-02 07:58N 18°03' W 063°06'0 0.0
2018-Apr-02 07:28N 18°03' W 063°06'0 0.0
2018-Apr-02 06:58N 18°03' W 063°06'0 0.0
2018-Apr-02 06:16N 18°03' W 063°06'0 0.0
2018-Apr-02 05:58N 18°03' W 063°06'0 0.0
2018-Apr-02 05:28N 18°03' W 063°06'0 0.0
2018-Apr-02 04:58N 18°03' W 063°06'0 0.0
2018-Apr-02 04:19N 18°03' W 063°06'0 0.0
2018-Apr-02 03:46N 18°03' W 063°06'0 0.0
2018-Apr-02 03:19N 18°03' W 063°06'0 0.0
2018-Apr-02 02:52N 18°03' W 063°06'0 0.0
2018-Apr-02 02:22N 18°03' W 063°06'0 0.0
2018-Apr-02 01:52N 18°03' W 063°06'0 0.0
2018-Apr-02 01:22N 18°03' W 063°06'0 0.0
2018-Apr-02 00:52N 18°03' W 063°06'0 0.0
2018-Apr-02 00:22N 18°03' W 063°06'0 0.0
2018-Apr-01 23:55N 18°03' W 063°06'0 0.0
2018-Apr-01 23:25N 18°03' W 063°06'0 0.0
2018-Apr-01 22:55N 18°03' W 063°06'0 0.0
2018-Apr-01 22:22N 18°03' W 063°06'0 0.0
2018-Apr-01 21:55N 18°03' W 063°06'0 0.0
2018-Apr-01 21:28N 18°03' W 063°06'0 0.0
2018-Apr-01 20:58N 18°03' W 063°06'0 0.1
2018-Apr-01 20:30N 18°03' W 063°06'0 0.0
2018-Apr-01 19:59N 18°03' W 063°06'0 0.0
2018-Apr-01 19:30N 18°03' W 063°06'0 0.0
2018-Apr-01 19:00N 18°03' W 063°06'0 0.0
2018-Apr-01 18:30N 18°03' W 063°06'0 0.0
2018-Apr-01 17:48N 18°03' W 063°06'0 0.0
2018-Apr-01 17:17N 18°03' W 063°06'0 0.0
2018-Apr-01 16:50N 18°03' W 063°06'0 0.0
2018-Apr-01 16:24N 18°03' W 063°06'0 0.0
2018-Apr-01 15:54N 18°03' W 063°06'0 0.0
2018-Apr-01 15:23N 18°03' W 063°06'0 0.0
2018-Apr-01 14:53N 18°03' W 063°06'0 0.0
2018-Apr-01 14:23N 18°03' W 063°06'0 0.0
2018-Apr-01 13:53N 18°03' W 063°06'0 0.0
2018-Apr-01 13:27N 18°03' W 063°06'0 0.0
2018-Apr-01 12:56N 18°03' W 063°06'0 0.0
2018-Apr-01 12:26N 18°03' W 063°06'0 0.0
2018-Apr-01 11:51N 18°03' W 063°06'0 0.0
2018-Apr-01 11:21N 18°03' W 063°06'0 0.0
2018-Apr-01 10:51N 18°03' W 063°06'0 0.0
2018-Apr-01 10:24N 18°03' W 063°06'0 0.0
2018-Apr-01 09:54N 18°03' W 063°06'0 0.0
2018-Apr-01 09:24N 18°03' W 063°06'0 0.0
2018-Apr-01 08:54N 18°03' W 063°06'0 0.0
2018-Apr-01 08:24N 18°03' W 063°06'0 0.0
2018-Apr-01 07:57N 18°03' W 063°06'0 0.0
2018-Apr-01 07:27N 18°03' W 063°06'0 0.0
2018-Apr-01 06:54N 18°03' W 063°06'0 0.0
2018-Apr-01 06:27N 18°03' W 063°06'0 0.0
2018-Apr-01 05:54N 18°03' W 063°06'0 0.0
2018-Apr-01 05:30N 18°03' W 063°06'0 0.0
2018-Apr-01 05:00N 18°03' W 063°06'0 0.0
2018-Apr-01 04:30N 18°03' W 063°06'0 0.0
2018-Apr-01 04:00N 18°03' W 063°06'0 0.0
2018-Apr-01 03:27N 18°03' W 063°06'0 0.0
2018-Apr-01 03:00N 18°03' W 063°06'0 0.0
2018-Apr-01 02:30N 18°03' W 063°06'0 0.0
2018-Apr-01 01:57N 18°03' W 063°06'0 0.0
2018-Apr-01 01:30N 18°03' W 063°06'0 0.0
2018-Apr-01 00:45N 18°03' W 063°06'0 0.0
2018-Apr-01 00:30N 18°03' W 063°06'0 0.0
2018-Apr-01 00:00N 18°03' W 063°06'0 0.0
2018-Mar-31 23:18N 18°03' W 063°06'0 0.0
2018-Mar-31 23:00N 18°03' W 063°06'0 0.0
2018-Mar-31 22:21N 18°03' W 063°06'0 0.0
2018-Mar-31 21:54N 18°03' W 063°06'0 0.0
2018-Mar-31 21:24N 18°03' W 063°06'0 0.0
2018-Mar-31 20:51N 18°03' W 063°06'0 0.0
2018-Mar-31 20:24N 18°03' W 063°06'0 0.0
2018-Mar-31 19:54N 18°03' W 063°06'0 0.0
2018-Mar-31 19:24N 18°03' W 063°06'0 0.0
2018-Mar-31 18:51N 18°03' W 063°06'0 0.0
2018-Mar-31 18:27N 18°03' W 063°06'0 0.0
2018-Mar-31 17:57N 18°03' W 063°06'0 0.0
2018-Mar-31 17:27N 18°03' W 063°06'0 0.0
2018-Mar-31 16:57N 18°03' W 063°06'0 0.0
2018-Mar-31 16:27N 18°03' W 063°06'0 0.0
2018-Mar-31 16:00N 18°03' W 063°06'0 0.0
2018-Mar-31 15:30N 18°03' W 063°06'0 0.0
2018-Mar-31 15:00N 18°03' W 063°06'0 0.0
2018-Mar-31 14:30N 18°03' W 063°06'0 0.0
2018-Mar-31 14:00N 18°03' W 063°06'0 0.0
2018-Mar-31 13:30N 18°03' W 063°06'0 0.0
2018-Mar-31 13:00N 18°03' W 063°06'0 0.0
2018-Mar-31 12:30N 18°03' W 063°06'0 0.0
2018-Mar-31 12:00N 18°03' W 063°06'0 0.0
2018-Mar-31 11:30N 18°03' W 063°06'0 0.0
2018-Mar-31 11:00N 18°03' W 063°06'0 0.0
2018-Mar-31 10:30N 18°03' W 063°06'0 0.0
2018-Mar-31 10:00N 18°03' W 063°06'0 0.0
2018-Mar-31 09:21N 18°03' W 063°06'0 0.0
2018-Mar-31 08:51N 18°03' W 063°06'0 0.0
2018-Mar-31 08:18N 18°03' W 063°06'0 0.0
2018-Mar-31 07:54N 18°03' W 063°06'0 0.0
2018-Mar-31 07:24N 18°03' W 063°06'0 0.0
2018-Mar-31 06:54N 18°03' W 063°06'0 0.0
2018-Mar-31 06:24N 18°03' W 063°06'0 0.0
2018-Mar-31 05:54N 18°03' W 063°06'0 0.0
2018-Mar-31 05:27N 18°03' W 063°06'0 0.0
2018-Mar-31 04:57N 18°03' W 063°06'0 0.0
2018-Mar-31 04:27N 18°03' W 063°06'0 0.0
2018-Mar-31 03:52N 18°03' W 063°06'0 0.0
2018-Mar-31 03:25N 18°03' W 063°06'0 0.0
2018-Mar-31 02:55N 18°03' W 063°06'0 0.0
2018-Mar-31 02:25N 18°03' W 063°06'0 0.0
2018-Mar-31 01:55N 18°03' W 063°06'0 0.0
2018-Mar-31 01:22N 18°03' W 063°06'0 0.0
2018-Mar-31 00:58N 18°03' W 063°06'0 0.0
2018-Mar-31 00:28N 18°03' W 063°06'0 0.0
2018-Mar-30 23:58N 18°03' W 063°06'0 0.0
2018-Mar-30 23:13N 18°03' W 063°06'0 0.0
2018-Mar-30 22:58N 18°03' W 063°06'0 0.0
2018-Mar-30 22:28N 18°03' W 063°06'0 0.0
2018-Mar-30 21:58N 18°03' W 063°06'0 0.0
2018-Mar-30 21:28N 18°03' W 063°06'0 0.0
2018-Mar-30 20:58N 18°03' W 063°06'0 0.0
2018-Mar-30 20:28N 18°03' W 063°06'0 0.0
2018-Mar-30 19:58N 18°03' W 063°06'0 0.0
2018-Mar-30 19:28N 18°03' W 063°06'0 0.0
2018-Mar-30 18:58N 18°03' W 063°06'0 0.0
2018-Mar-30 18:30N 18°03' W 063°06'0 0.0
2018-Mar-30 18:00N 18°03' W 063°06'0 0.0
2018-Mar-30 16:48N 18°03' W 063°06'0 0.0
2018-Mar-30 16:24N 18°03' W 063°06'0 0.0
2018-Mar-30 15:54N 18°03' W 063°06'0 0.0
2018-Mar-30 15:24N 18°03' W 063°06'0 0.0
2018-Mar-30 14:54N 18°03' W 063°06'0 0.0
2018-Mar-30 14:24N 18°03' W 063°06'0 0.0
2018-Mar-30 13:54N 18°03' W 063°06'0 0.0
2018-Mar-30 13:27N 18°03' W 063°06'0 0.0
2018-Mar-30 12:57N 18°03' W 063°06'0 0.0
2018-Mar-30 12:24N 18°03' W 063°06'0 0.0
2018-Mar-30 11:57N 18°03' W 063°06'0 0.0
2018-Mar-30 11:27N 18°03' W 063°06'0 0.0
2018-Mar-30 11:00N 18°03' W 063°06'0 0.0
2018-Mar-30 10:30N 18°03' W 063°06'0 0.0
2018-Mar-30 10:00N 18°03' W 063°06'0 0.0
2018-Mar-30 09:30N 18°03' W 063°06'0 0.0
2018-Mar-30 09:00N 18°03' W 063°06'0 0.0
2018-Mar-30 08:30N 18°03' W 063°06'0 0.0
2018-Mar-30 08:00N 18°03' W 063°06'0 0.0
2018-Mar-30 07:30N 18°03' W 063°06'0 0.0
2018-Mar-30 07:00N 18°03' W 063°06'0 0.0
2018-Mar-30 06:30N 18°03' W 063°06'0 0.0
2018-Mar-30 06:00N 18°03' W 063°06'0 0.0
2018-Mar-30 05:30N 18°03' W 063°06'0 0.0
2018-Mar-30 05:00N 18°03' W 063°06'0 0.0
2018-Mar-30 04:15N 18°03' W 063°06'0 0.0
2018-Mar-30 03:51N 18°03' W 063°06'0 0.0
2018-Mar-30 03:21N 18°03' W 063°06'0 0.0
2018-Mar-30 02:54N 18°03' W 063°06'0 0.0
2018-Mar-30 02:24N 18°03' W 063°06'0 0.0
2018-Mar-30 01:54N 18°03' W 063°06'0 0.0
2018-Mar-30 01:24N 18°03' W 063°06'0 0.0
2018-Mar-30 00:54N 18°03' W 063°06'0 0.0
2018-Mar-30 00:24N 18°03' W 063°06'0 0.0
2018-Mar-29 23:57N 18°03' W 063°06'0 0.0
2018-Mar-29 23:27N 18°03' W 063°06'0 0.0
2018-Mar-29 22:57N 18°03' W 063°06'0 0.0
2018-Mar-29 22:27N 18°03' W 063°06'1 1.2
2018-Mar-29 21:57N 18°03' W 063°06'1 1.3
2018-Mar-29 21:30N 18°03' W 063°06'0 0.0
2018-Mar-29 21:00N 18°03' W 063°06'0 0.0
2018-Mar-29 20:30N 18°03' W 063°06'0 0.0
2018-Mar-29 20:00N 18°03' W 063°06'0 0.0
2018-Mar-29 19:27N 18°03' W 063°06'0 0.0
2018-Mar-29 18:57N 18°03' W 063°06'0 0.0
2018-Mar-29 18:30N 18°03' W 063°06'0 0.0
2018-Mar-29 18:00N 18°03' W 063°06'0 0.0
2018-Mar-29 17:27N 18°03' W 063°06'0 0.0
2018-Mar-29 17:00N 18°03' W 063°06'0 0.0
2018-Mar-29 16:18N 18°03' W 063°06'0 0.0
2018-Mar-29 15:48N 18°03' W 063°06'0 0.0
2018-Mar-29 15:30N 18°03' W 063°06'0 0.0
2018-Mar-29 14:51N 18°03' W 063°06'0 0.0
2018-Mar-29 14:21N 18°03' W 063°06'0 0.0
2018-Mar-29 13:51N 18°03' W 063°06'0 0.0
2018-Mar-29 13:21N 18°03' W 063°06'0 0.0
2018-Mar-29 12:54N 18°03' W 063°06'0 0.0
2018-Mar-29 12:24N 18°03' W 063°06'0 0.0
2018-Mar-29 11:54N 18°03' W 063°06'0 0.0
2018-Mar-29 11:24N 18°03' W 063°06'0 0.0
2018-Mar-29 10:54N 18°03' W 063°06'0 0.0
2018-Mar-29 10:24N 18°03' W 063°06'0 0.0
2018-Mar-29 09:57N 18°03' W 063°06'0 0.0
2018-Mar-29 09:27N 18°03' W 063°06'0 0.0
2018-Mar-29 08:54N 18°03' W 063°06'0 0.0
2018-Mar-29 08:27N 18°03' W 063°06'0 0.0
2018-Mar-29 08:00N 18°03' W 063°06'0 0.0
2018-Mar-29 07:30N 18°03' W 063°06'0 0.0
2018-Mar-29 07:00N 18°03' W 063°06'0 0.0
2018-Mar-29 06:30N 18°03' W 063°06'0 0.0
2018-Mar-29 06:00N 18°03' W 063°06'0 0.0
2018-Mar-29 05:30N 18°03' W 063°06'0 0.0
2018-Mar-29 04:48N 18°03' W 063°06'0 0.0
2018-Mar-29 04:30N 18°03' W 063°06'0 0.0
2018-Mar-29 04:00N 18°03' W 063°06'0 0.0
2018-Mar-29 03:30N 18°03' W 063°06'0 0.0
2018-Mar-29 03:00N 18°03' W 063°06'0 0.0
2018-Mar-29 02:30N 18°03' W 063°06'0 0.0
2018-Mar-29 02:00N 18°03' W 063°06'0 0.0
2018-Mar-29 01:30N 18°03' W 063°06'0 0.0
2018-Mar-29 01:00N 18°03' W 063°06'0 0.0
2018-Mar-29 00:21N 18°03' W 063°06'0 0.0
2018-Mar-28 23:51N 18°03' W 063°06'0 0.0
2018-Mar-28 23:24N 18°03' W 063°06'0 0.0
2018-Mar-28 22:54N 18°03' W 063°06'0 0.0
2018-Mar-28 22:21N 18°03' W 063°06'0 0.0
2018-Mar-28 21:54N 18°03' W 063°06'0 0.0
2018-Mar-28 21:24N 18°03' W 063°06'0 0.0
2018-Mar-28 20:57N 18°03' W 063°06'0 0.0
2018-Mar-28 20:27N 18°03' W 063°06'0 0.0
2018-Mar-28 19:57N 18°03' W 063°06'1 1.4
2018-Mar-28 19:30N 18°03' W 063°06'0 0.2
2018-Mar-28 18:48N 18°02' W 063°06'0 0.0
2018-Mar-28 18:06N 18°02' W 063°06'0 0.0
2018-Mar-28 17:54N 18°02' W 063°06'0 0.0
2018-Mar-28 17:24N 18°02' W 063°06'0 0.0
2018-Mar-28 16:51N 18°02' W 063°06'0 0.0
2018-Mar-28 16:21N 18°02' W 063°06'0 0.0
2018-Mar-28 15:51N 18°02' W 063°06'0 1.3
2018-Mar-28 15:28N 18°02' W 063°06'0 0.2
2018-Mar-28 14:53N 18°02' W 063°06'0 0.0
2018-Mar-28 14:26N 18°02' W 063°06'0 0.8
2018-Mar-28 13:59N 18°02' W 063°06'3 7.0
2018-Mar-28 13:30N 17°60' W 063°03'5 7.1
2018-Mar-28 12:48N 17°57' W 062°59'  

Dump ship's entire track history